Qaarsut

KL  EN  DA
ASIAQ
Weather Now GREENLAND SURVEY
Updated [WGT/WGST] Temperature [°C] Wind [m/s] Air pressure [hPa] Relative humidity [%] Precipitation [mm]
Present Wind chill Speed Max
18.04 01:00-13,9-21,94,6 ⇖6,81008520,0
18.04 00:00-14,4-23,55,6 ⇖8,01007630,0
17.04 23:00-13,7-23,56,9 ⇖8,51007630,0
17.04 22:00-13,7-23,87,4 ⇐8,81006640,0
17.04 21:00-13,7-23,57,1 ⇖8,01006660,0
17.04 20:00-13,3-23,17,1 ⇖8,71006600,0
17.04 19:00-13,3-23,67,9 ⇖9,61005640,0
17.04 18:00-12,7-23,08,5 ⇖9,71004670,0
17.04 17:00-12,3-22,68,6 ⇖10,21004650,0
17.04 16:00-12,5-22,98,6 ⇖9,91003620,0
17.04 15:00-12,2-22,28,0 ⇖9,11003620,0
17.04 14:00-12,2-22,17,9 ⇖9,11002620,0
17.04 13:00-12,5-22,27,3 ⇐8,61002660,0
17.04 12:00-13,2-24,09,0 ⇖10,51001700,0
17.04 11:00-13,8-24,68,6 ⇖10,11001720,0
17.04 10:00-14,0-25,08,7 ⇖10,21001770,1
17.04 09:00-14,1-24,47,6 ⇖8,91001700,1
17.04 08:00-14,5-24,56,9 ⇖8,61000700,0
17.04 07:00-15,2-21,52,8 ⇖4,51000730,0
17.04 06:00-16,1-21,82,3 ⇐3,01000700,0
17.04 05:00-15,5-23,44,1 ⇖5,7999670,0
17.04 04:00-16,4-21,72,1 ⇑3,3999640,0
17.04 03:00-16,5-22,32,3 ⇑3,6999640,0
17.04 02:00-15,6-19,71,6 ⇑2,2999670,0
17.04 01:00-15,9-21,22,1 ⇑3,1998640,0
Position: (70.73333333,-52.7)

[Back]